createdAt,value
2022-11-17T04:19:26.915Z,96497.72
2022-11-17T04:22:36.536Z,96495.50
2022-11-17T04:25:58.554Z,96499.03
2022-11-17T04:29:08.160Z,96488.97
2022-11-17T04:32:17.845Z,96484.22
2022-11-17T04:35:30.622Z,96475.75
2022-11-17T04:38:42.764Z,96467.59
2022-11-17T04:41:57.281Z,96464.34
2022-11-17T04:45:07.580Z,96444.06
2022-11-17T04:48:17.150Z,96456.88
2022-11-17T04:51:29.653Z,96440.78
2022-11-17T04:54:39.271Z,96446.19
2022-11-17T04:57:48.850Z,96453.81
2022-11-17T05:01:12.282Z,96457.94
2022-11-17T05:04:36.389Z,96437.16
2022-11-17T05:07:47.410Z,96434.59
2022-11-17T05:11:09.406Z,96444.19
2022-11-17T05:14:21.257Z,96447.53
2022-11-17T05:17:29.934Z,96432.44
2022-11-17T05:20:39.547Z,96427.41
2022-11-17T05:23:56.445Z,96437.66
2022-11-17T05:27:06.157Z,96430.91
2022-11-17T05:30:16.251Z,96431.16
2022-11-17T05:33:25.847Z,96434.41
2022-11-17T05:36:35.980Z,96418.91
2022-11-17T05:39:46.855Z,96419.03
2022-11-17T05:42:57.276Z,96417.50
2022-11-17T05:46:07.358Z,96426.03
2022-11-17T05:49:16.969Z,96426.03
2022-11-17T05:52:26.560Z,96420.19
2022-11-17T05:55:37.523Z,96415.88
2022-11-17T05:58:52.661Z,96410.88
2022-11-17T07:19:02.584Z,96438.59
2022-11-17T07:22:13.565Z,96454.09
2022-11-17T07:25:23.147Z,96452.44
2022-11-17T07:28:34.503Z,96455.03
2022-11-17T07:31:44.423Z,96450.06
2022-11-17T07:34:54.037Z,96457.19
2022-11-17T07:38:05.052Z,96459.91
2022-11-17T07:41:15.431Z,96455.25
2022-11-17T07:44:25.296Z,96457.22
2022-11-17T07:47:34.948Z,96457.66
2022-11-17T07:50:44.583Z,96466.38
2022-11-17T07:53:55.490Z,96470.09
2022-11-17T07:57:05.088Z,96467.13
2022-11-17T08:00:16.064Z,96464.38
2022-11-17T08:03:25.688Z,96474.97
2022-11-17T08:06:35.302Z,96471.25
2022-11-17T08:09:47.283Z,96469.97
2022-11-17T08:12:56.867Z,96477.53
2022-11-17T08:16:07.447Z,96466.41
2022-11-17T08:19:17.156Z,96474.94
2022-11-17T08:22:26.763Z,96491.31
2022-11-17T08:25:37.669Z,96483.59
2022-11-17T08:28:47.674Z,96484.22
2022-11-17T08:31:57.269Z,96488.44
2022-11-17T08:35:07.818Z,96487.56
2022-11-17T08:38:18.247Z,96494.31
2022-11-17T08:41:29.125Z,96497.53
2022-11-17T08:44:38.938Z,96499.06
2022-11-17T08:47:48.953Z,96518.06
2022-11-17T08:50:59.349Z,96509.66
2022-11-17T08:54:11.568Z,96518.31
2022-11-17T08:57:22.806Z,96521.16
2022-11-17T09:00:32.524Z,96513.03
2022-11-17T09:03:44.072Z,96524.31
2022-11-17T09:06:53.941Z,96527.25
2022-11-17T09:10:05.424Z,96534.09
2022-11-17T09:13:18.747Z,96533.88
2022-11-17T09:16:28.524Z,96532.03
2022-11-17T09:19:38.109Z,96533.19
2022-11-17T09:22:48.026Z,96546.81
2022-11-17T09:25:57.636Z,96539.28
2022-11-17T09:29:09.095Z,96537.28
2022-11-17T09:32:20.721Z,96558.84
2022-11-17T09:35:30.403Z,96562.81
2022-11-17T09:38:40.995Z,96572.00
2022-11-17T09:41:52.577Z,96571.53
2022-11-17T09:45:09.946Z,96594.41
2022-11-17T09:48:40.666Z,96576.91
2022-11-17T09:51:51.942Z,96586.19
2022-11-17T09:55:05.040Z,96588.06
2022-11-17T09:58:20.070Z,96588.59
2022-11-17T10:01:31.486Z,96576.38
2022-11-17T10:04:41.184Z,96581.34
2022-11-17T10:07:53.354Z,96588.69
2022-11-17T10:11:23.695Z,96582.16
2022-11-17T10:14:35.374Z,96581.19
2022-11-17T10:17:46.339Z,96585.31
2022-11-17T10:20:55.989Z,96584.06
2022-11-17T10:24:06.321Z,96587.34
2022-11-17T10:27:21.629Z,96589.59
2022-11-17T10:30:31.304Z,96598.88
2022-11-17T10:33:43.870Z,96592.34
2022-11-17T10:36:53.553Z,96598.84
2022-11-17T10:40:23.797Z,96600.16
2022-11-17T10:43:36.620Z,96603.09
2022-11-17T10:47:00.498Z,96593.31
2022-11-17T10:50:22.784Z,96585.97
2022-11-17T10:53:42.843Z,96579.38
2022-11-17T10:56:57.115Z,96576.19
2022-11-17T11:00:23.956Z,96566.22
2022-11-17T11:03:35.899Z,96564.97
2022-11-17T11:06:47.215Z,96577.72
2022-11-17T11:10:04.431Z,96591.16
2022-11-17T11:13:19.862Z,96589.94
2022-11-17T11:16:30.857Z,96600.94
2022-11-17T11:19:42.283Z,96607.84
2022-11-17T11:26:45.551Z,96602.84
2022-11-17T11:30:03.666Z,96601.19
2022-11-17T11:33:32.550Z,96595.44
2022-11-17T11:36:49.501Z,96597.44
2022-11-17T11:40:11.304Z,96603.88
2022-11-17T11:43:32.892Z,96590.34
2022-11-17T11:46:51.802Z,96621.66
2022-11-17T11:50:06.776Z,96628.19
2022-11-17T11:53:26.184Z,96629.06
2022-11-17T11:56:39.824Z,96626.13
2022-11-17T12:00:03.965Z,96634.34
2022-11-17T12:03:26.545Z,96631.09
2022-11-17T12:06:44.505Z,96633.78
2022-11-17T12:10:04.013Z,96643.84
2022-11-17T12:13:16.133Z,96646.69
2022-11-17T12:16:33.163Z,96642.16
2022-11-17T12:19:50.493Z,96649.84
2022-11-17T12:23:15.622Z,96637.34
2022-11-17T12:26:27.998Z,96648.03
2022-11-17T12:29:47.803Z,96628.38
2022-11-17T12:33:00.618Z,96641.72
2022-11-17T12:36:30.929Z,96638.91
2022-11-17T12:39:55.753Z,96634.44
2022-11-17T12:43:22.114Z,96636.16
2022-11-17T12:46:34.103Z,96625.25
2022-11-17T12:49:56.824Z,96622.53
2022-11-17T12:53:27.345Z,96618.13
2022-11-17T12:56:49.919Z,96617.16
2022-11-17T13:00:07.799Z,96600.03
2022-11-17T13:03:25.115Z,96614.03
2022-11-17T13:06:37.547Z,96623.28
2022-11-17T13:09:51.963Z,96633.53
2022-11-17T13:13:12.194Z,96640.13
2022-11-17T13:16:23.252Z,96641.31
2022-11-17T13:19:37.034Z,96639.72
2022-11-17T13:23:04.620Z,96641.88
2022-11-17T13:26:21.862Z,96642.97
2022-11-17T13:29:32.718Z,96632.09
2022-11-17T13:32:44.049Z,96626.59
2022-11-17T13:36:09.400Z,96628.13
2022-11-17T13:39:26.841Z,96632.69
2022-11-17T13:42:38.244Z,96637.66
2022-11-17T13:45:49.164Z,96643.41
2022-11-17T13:49:00.242Z,96648.06
2022-11-17T13:52:34.212Z,96653.19
2022-11-17T13:55:48.802Z,96658.00
2022-11-17T13:59:01.325Z,96657.47
2022-11-17T14:02:25.386Z,96645.59
2022-11-17T14:05:36.054Z,96656.78
2022-11-17T14:09:03.962Z,96653.13
2022-11-17T14:12:18.353Z,96655.09
2022-11-17T14:15:30.916Z,96664.41
2022-11-17T14:18:42.126Z,96670.06
2022-11-17T14:22:00.504Z,96677.59
2022-11-17T14:25:13.545Z,96684.25
2022-11-17T14:28:26.846Z,96659.84
2022-11-17T14:31:37.774Z,96673.06
2022-11-17T14:34:48.402Z,96687.50
2022-11-17T14:37:59.073Z,96704.31
2022-11-17T14:41:09.882Z,96710.16
2022-11-17T14:44:23.306Z,96702.03
2022-11-17T14:47:33.946Z,96699.38
2022-11-17T14:50:44.774Z,96703.34
2022-11-17T14:53:55.456Z,96702.59
2022-11-17T14:57:06.135Z,96692.94
2022-11-17T15:00:20.524Z,96715.63
2022-11-17T15:03:31.506Z,96707.94
2022-11-17T15:06:42.106Z,96712.22
2022-11-17T15:09:52.724Z,96704.66
2022-11-17T15:13:03.496Z,96715.63
2022-11-17T15:16:15.509Z,96721.88
2022-11-17T15:19:25.537Z,96694.44
2022-11-17T15:22:36.005Z,96709.09
2022-11-17T15:25:46.615Z,96705.91
2022-11-17T15:28:59.022Z,96713.97
2022-11-17T15:32:10.896Z,96707.50
2022-11-17T15:35:22.098Z,96710.50
2022-11-17T15:38:33.148Z,96709.03
2022-11-17T15:41:43.964Z,96701.31
2022-11-17T15:44:54.749Z,96694.72
2022-11-17T15:48:06.800Z,96697.81
2022-11-17T15:51:19.014Z,96710.63
2022-11-17T15:54:29.525Z,96709.63
2022-11-17T15:57:39.988Z,96713.78
2022-11-17T16:00:50.647Z,96717.88
2022-11-17T16:04:04.507Z,96719.38
2022-11-17T16:07:15.194Z,96723.25
2022-11-17T16:10:27.383Z,96718.94
2022-11-17T16:13:38.223Z,96775.16
2022-11-17T16:16:49.078Z,96769.06
2022-11-17T16:20:01.090Z,96769.06
2022-11-17T16:23:11.740Z,96762.13
2022-11-17T16:26:23.154Z,96747.34
2022-11-17T16:29:33.767Z,96754.22
2022-11-17T16:32:44.435Z,96744.00
2022-11-17T16:35:56.434Z,96745.16
2022-11-17T16:39:08.707Z,96729.63
2022-11-17T16:42:19.318Z,96720.56
2022-11-17T16:45:29.936Z,96727.38
2022-11-17T16:48:40.754Z,96728.19
2022-11-17T16:51:54.891Z,96726.94
2022-11-17T16:55:05.676Z,96722.97
2022-11-17T16:58:16.289Z,96726.56
2022-11-17T17:01:28.608Z,96720.13
2022-11-17T17:04:39.175Z,96713.81
2022-11-17T17:07:51.155Z,96715.16
2022-11-17T17:11:04.601Z,96722.91
2022-11-17T17:14:16.150Z,96716.56
2022-11-17T17:17:26.805Z,96725.22
2022-11-17T17:20:37.678Z,96728.59
2022-11-17T17:23:49.559Z,96734.19
2022-11-17T17:27:00.116Z,96738.16
2022-11-17T17:30:11.489Z,96742.03
2022-11-17T17:33:22.205Z,96747.91
2022-11-17T17:36:33.567Z,96748.72
2022-11-17T17:39:45.675Z,96749.69
2022-11-17T17:42:56.406Z,96754.16
2022-11-17T17:46:14.279Z,96760.44
2022-11-17T17:49:27.006Z,96754.47
2022-11-17T17:52:38.244Z,96757.19
2022-11-17T17:55:50.818Z,96746.97
2022-11-17T17:59:01.921Z,96745.78
2022-11-17T18:02:14.332Z,96752.41
2022-11-17T18:05:29.963Z,96761.66
2022-11-17T18:08:42.735Z,96769.50
2022-11-17T18:11:58.615Z,96770.75
2022-11-17T18:15:12.786Z,96767.41
2022-11-17T18:18:26.360Z,96772.81
2022-11-17T18:21:43.056Z,96768.19
2022-11-17T18:24:58.392Z,96776.31
2022-11-17T18:28:12.449Z,96782.63
2022-11-17T18:31:24.406Z,96800.75
2022-11-17T18:34:37.662Z,96793.59
2022-11-17T18:37:52.111Z,96794.09
2022-11-17T18:41:08.268Z,96790.34
2022-11-17T18:44:24.088Z,96787.06
2022-11-17T18:47:37.150Z,96781.81
2022-11-17T18:51:17.846Z,96806.44
2022-11-17T18:54:24.593Z,96799.81
2022-11-17T18:57:43.499Z,96803.00
2022-11-17T19:01:00.488Z,96803.16
2022-11-17T19:04:17.364Z,96816.59
2022-11-17T19:07:30.951Z,96804.28
2022-11-17T19:10:51.916Z,96807.63
2022-11-17T19:14:06.642Z,96807.78
2022-11-17T19:17:23.645Z,96806.19
2022-11-17T19:20:40.931Z,96798.88
2022-11-17T19:23:54.715Z,96792.25
2022-11-17T19:27:09.068Z,96788.88
2022-11-17T19:30:23.692Z,96793.91
2022-11-17T19:33:40.783Z,96804.06
2022-11-17T19:36:54.992Z,96812.94
2022-11-17T19:40:08.616Z,96813.88
2022-11-17T19:43:23.170Z,96815.19
2022-11-17T19:46:40.682Z,96816.28
2022-11-17T19:49:56.133Z,96809.75
2022-11-17T19:53:10.267Z,96814.31
2022-11-17T19:56:24.599Z,96823.66
2022-11-17T19:59:38.676Z,96814.47
2022-11-17T20:02:52.473Z,96827.59
2022-11-17T20:06:08.130Z,96820.78
2022-11-17T20:09:24.587Z,96829.56
2022-11-17T20:12:39.282Z,96827.97
2022-11-17T20:16:00.264Z,96834.19
2022-11-17T20:19:15.196Z,96825.13
2022-11-17T20:22:31.748Z,96832.16
2022-11-17T20:25:45.429Z,96832.16
2022-11-17T20:29:00.635Z,96836.25
2022-11-17T20:32:13.860Z,96827.41
2022-11-17T20:35:25.211Z,96832.22
2022-11-17T20:38:37.711Z,96836.69
2022-11-17T20:41:49.088Z,96833.09
2022-11-17T20:45:00.059Z,96844.91
2022-11-17T20:48:10.810Z,96837.09
2022-11-17T20:51:23.430Z,96838.06
2022-11-17T20:54:35.527Z,96839.88
2022-11-17T20:57:46.432Z,96847.69
2022-11-17T21:00:57.335Z,96851.94
2022-11-17T21:04:07.960Z,96855.38
2022-11-17T21:07:18.848Z,96858.81
2022-11-17T21:10:30.835Z,96866.47
2022-11-17T21:13:41.498Z,96872.56
2022-11-17T21:16:52.111Z,96868.50
2022-11-17T21:20:02.796Z,96872.91
2022-11-17T21:23:13.590Z,96874.84
2022-11-17T21:26:25.702Z,96867.09
2022-11-17T21:29:36.358Z,96873.88
2022-11-17T21:32:47.036Z,96878.19
2022-11-17T21:36:02.088Z,96872.03
2022-11-17T21:39:18.485Z,96874.31
2022-11-17T21:42:30.957Z,96884.22
2022-11-17T21:45:41.530Z,96894.09
2022-11-17T21:48:52.997Z,96899.41
2022-11-17T21:52:03.696Z,96891.06
2022-11-17T21:55:14.365Z,96891.25
2022-11-17T21:58:26.218Z,96897.16
2022-11-17T22:01:36.989Z,96885.09
2022-11-17T22:04:47.616Z,96886.88
2022-11-17T22:07:59.012Z,96884.06
2022-11-17T22:11:11.584Z,96886.44
2022-11-17T22:14:23.935Z,96879.69
2022-11-17T22:17:34.818Z,96876.16
2022-11-17T22:20:50.916Z,96880.06
2022-11-17T22:24:01.792Z,96885.69
2022-11-17T22:27:12.486Z,96886.09
2022-11-17T22:30:24.364Z,96883.47
2022-11-17T22:33:35.087Z,96892.63
2022-11-17T22:36:45.919Z,96892.47
2022-11-17T22:39:56.776Z,96891.50
2022-11-17T22:43:13.301Z,96900.13
2022-11-17T22:46:28.355Z,96902.84
2022-11-17T22:49:38.987Z,96900.53
2022-11-17T22:52:49.805Z,96902.22
2022-11-17T22:56:03.883Z,96909.88
2022-11-17T22:59:14.838Z,96905.66
2022-11-17T23:02:26.954Z,96908.28
2022-11-17T23:05:37.716Z,96913.25
2022-11-17T23:08:48.434Z,96919.47
2022-11-17T23:11:59.145Z,96921.66
2022-11-17T23:15:09.989Z,96931.19
2022-11-17T23:18:22.099Z,96932.63
2022-11-17T23:21:32.894Z,96934.19
2022-11-17T23:24:43.659Z,96925.19
2022-11-17T23:27:54.295Z,96929.59
2022-11-17T23:31:06.537Z,96918.91
2022-11-17T23:34:18.582Z,96918.56
2022-11-17T23:37:29.847Z,96909.06
2022-11-17T23:40:40.454Z,96906.16
2022-11-17T23:43:52.344Z,96901.88
2022-11-17T23:47:03.243Z,96910.56
2022-11-17T23:50:15.289Z,96902.78
2022-11-17T23:53:26.237Z,96897.00
2022-11-17T23:56:36.885Z,96886.91
2022-11-17T23:59:47.513Z,96879.88
